Aérodrome :
LOGIN :

S'inscrire | Disclaimer

   EN    FR    IT 

 










Légende :    VFR   VFR Marginal   IFR   IFR Intensif   IFR Très Intensif
Visi : 
Plafond : 
>= 8 km
>= 3000ft
5 à 8 km
1000 à 3000 ft
1500m à 5 km
500 à 1000 ft
800 à 1500m
200 à 500 ft
< 800m
< 200 ft
Symboles :   Orages  Brouillard  Fortes neiges  Fortes précipitations  Vent > 20 kt
SIGMETs :   Divers  Orages  Givrage  Turbulence  Onde Orograph.  Cendres Volcan.







- Altitude de l'aérodrome : 26 ft
- Code IATA : BIA
- Voir les cartes d'approche


LFKB - Bastia

DERNIER METAR :
  • 262300Z AUTO 23003KT CAVOK 18/15 Q1018 TEMPO BKN014

METARs EXPIRÉS :
  • 262230Z AUTO 24003KT CAVOK 19/15 Q1018 TEMPO BKN014
  • 262200Z AUTO 23004KT CAVOK 19/15 Q1018 NOSIG
  • 262130Z AUTO 24003KT CAVOK 19/16 Q1018 NOSIG
  • 262100Z AUTO 24003KT CAVOK 20/16 Q1018 NOSIG
  • 262030Z AUTO 25003KT CAVOK 21/17 Q1018 NOSIG

TAF TAF LFKB
Valide du 26 à 21h jusqu'au 27 à 21h UTC


262000Z 2621/2721 24004KT CAVOK
PROB30
TEMPO 2700/2708 BKN014
BECMG 2708/2709 14012KT
TEMPO 2709/2718 14012G22KT TX26/2713Z TN16/2704Z
ATIS : +33 4 95 59 19 40
Pas de NOTAMs connus pour ce terrain.
1 SIGMET publié pour la FIR Marseille (LFMM) :
 
Turbulence forte
LFMM SIGMET 10 VALID 261900/262300 LFPW
LFMM MARSEILLE FIR/UIR SEV TURB FCST WI N4000 E00430 - N4145 E00430 - N4345 E00745 - N4315 E00945 - N4000 E00430 FL280/400 STNR NC=



MET'MAP, la Météo Aéronautique d'un coup d'oeil ! - Copyright ORBIFLY Décembre 2007 - Disclaimer

ORBIFLY MET'MAP TEAM :

Programmation & Développement : Alexandra Zaïnal
Conception & Développement : Baudouin d'Aumeries
Co-Programmation & Développement : Marc-Olivier Méhu
Soutien technique & logistique : Manuel Goepfert

Contact : metmap@orbifly.com




SOURCES & CREDITS :

   NOAA